sensor_id;sensor_type;location;lat;lon;timestamp;P1;durP1;ratioP1;P2;durP2;ratioP2
14153;SDS011;7157;53.144;7.570;2023-05-07T00:05:44;25.65;;;14.48;;
14153;SDS011;7157;53.144;7.570;2023-05-07T00:15:47;25.52;;;12.82;;
14153;SDS011;7157;53.144;7.570;2023-05-07T00:25:51;30.92;;;14.18;;
14153;SDS011;7157;53.144;7.570;2023-05-07T00:35:54;24.85;;;13.55;;
14153;SDS011;7157;53.144;7.570;2023-05-07T00:45:58;21.98;;;12.60;;
14153;SDS011;7157;53.144;7.570;2023-05-07T00:56:02;25.60;;;12.20;;
14153;SDS011;7157;53.144;7.570;2023-05-07T01:06:06;22.38;;;12.10;;
14153;SDS011;7157;53.144;7.570;2023-05-07T01:16:10;34.38;;;16.30;;
14153;SDS011;7157;53.144;7.570;2023-05-07T01:26:14;31.65;;;15.43;;
14153;SDS011;7157;53.144;7.570;2023-05-07T01:36:17;29.58;;;14.52;;
14153;SDS011;7157;53.144;7.570;2023-05-07T01:46:23;31.45;;;16.40;;
14153;SDS011;7157;53.144;7.570;2023-05-07T01:56:28;28.15;;;15.13;;
14153;SDS011;7157;53.144;7.570;2023-05-07T02:06:32;29.08;;;13.35;;
14153;SDS011;7157;53.144;7.570;2023-05-07T02:16:36;24.45;;;13.52;;
14153;SDS011;7157;53.144;7.570;2023-05-07T02:26:40;30.55;;;14.13;;
14153;SDS011;7157;53.144;7.570;2023-05-07T02:36:43;25.77;;;13.90;;
14153;SDS011;7157;53.144;7.570;2023-05-07T02:46:48;29.23;;;13.95;;
14153;SDS011;7157;53.144;7.570;2023-05-07T02:56:50;25.92;;;14.20;;
14153;SDS011;7157;53.144;7.570;2023-05-07T03:06:55;27.63;;;14.30;;
14153;SDS011;7157;53.144;7.570;2023-05-07T03:16:57;28.70;;;14.77;;
14153;SDS011;7157;53.144;7.570;2023-05-07T03:27:01;22.55;;;12.88;;
14153;SDS011;7157;53.144;7.570;2023-05-07T03:37:04;24.00;;;11.88;;
14153;SDS011;7157;53.144;7.570;2023-05-07T03:47:08;20.25;;;11.88;;
14153;SDS011;7157;53.144;7.570;2023-05-07T03:57:11;21.30;;;11.63;;
14153;SDS011;7157;53.144;7.570;2023-05-07T04:07:15;20.15;;;12.30;;
14153;SDS011;7157;53.144;7.570;2023-05-07T04:17:18;23.45;;;11.25;;
14153;SDS011;7157;53.144;7.570;2023-05-07T04:27:22;20.90;;;11.45;;
14153;SDS011;7157;53.144;7.570;2023-05-07T04:37:25;21.13;;;11.75;;
14153;SDS011;7157;53.144;7.570;2023-05-07T04:47:29;19.33;;;10.82;;
14153;SDS011;7157;53.144;7.570;2023-05-07T04:57:32;19.77;;;9.68;;
14153;SDS011;7157;53.144;7.570;2023-05-07T05:07:36;18.92;;;10.15;;
14153;SDS011;7157;53.144;7.570;2023-05-07T05:17:39;20.83;;;11.23;;
14153;SDS011;7157;53.144;7.570;2023-05-07T05:27:44;21.90;;;10.68;;
14153;SDS011;7157;53.144;7.570;2023-05-07T05:37:47;20.65;;;10.95;;
14153;SDS011;7157;53.144;7.570;2023-05-07T05:47:51;23.13;;;10.73;;
14153;SDS011;7157;53.144;7.570;2023-05-07T05:57:54;24.23;;;10.35;;
14153;SDS011;7157;53.144;7.570;2023-05-07T06:07:59;23.15;;;11.10;;
14153;SDS011;7157;53.144;7.570;2023-05-07T06:18:02;22.90;;;10.70;;
14153;SDS011;7157;53.144;7.570;2023-05-07T06:28:06;24.83;;;12.13;;
14153;SDS011;7157;53.144;7.570;2023-05-07T06:38:12;21.98;;;12.30;;
14153;SDS011;7157;53.144;7.570;2023-05-07T06:48:16;25.27;;;12.30;;
14153;SDS011;7157;53.144;7.570;2023-05-07T06:58:19;23.20;;;11.88;;
14153;SDS011;7157;53.144;7.570;2023-05-07T07:08:22;21.77;;;10.80;;
14153;SDS011;7157;53.144;7.570;2023-05-07T07:18:25;21.80;;;11.43;;
14153;SDS011;7157;53.144;7.570;2023-05-07T07:28:29;23.85;;;10.00;;
14153;SDS011;7157;53.144;7.570;2023-05-07T07:38:32;18.63;;;10.40;;
14153;SDS011;7157;53.144;7.570;2023-05-07T07:48:36;18.10;;;9.82;;
14153;SDS011;7157;53.144;7.570;2023-05-07T07:58:39;17.27;;;10.90;;
14153;SDS011;7157;53.144;7.570;2023-05-07T08:08:43;17.40;;;10.77;;
14153;SDS011;7157;53.144;7.570;2023-05-07T08:18:45;16.27;;;10.27;;
14153;SDS011;7157;53.144;7.570;2023-05-07T08:28:49;21.50;;;12.50;;
14153;SDS011;7157;53.144;7.570;2023-05-07T08:38:52;19.75;;;10.40;;
14153;SDS011;7157;53.144;7.570;2023-05-07T08:48:57;17.23;;;10.57;;
14153;SDS011;7157;53.144;7.570;2023-05-07T08:59:00;15.63;;;10.98;;
14153;SDS011;7157;53.144;7.570;2023-05-07T09:09:06;17.92;;;11.07;;
14153;SDS011;7157;53.144;7.570;2023-05-07T09:19:08;14.93;;;9.35;;
14153;SDS011;7157;53.144;7.570;2023-05-07T09:29:12;13.18;;;9.30;;
14153;SDS011;7157;53.144;7.570;2023-05-07T09:39:18;13.63;;;8.57;;
14153;SDS011;7157;53.144;7.570;2023-05-07T09:49:22;17.83;;;12.63;;
14153;SDS011;7157;53.144;7.570;2023-05-07T09:59:26;17.70;;;11.05;;
14153;SDS011;7157;53.144;7.570;2023-05-07T10:09:32;15.18;;;11.07;;
14153;SDS011;7157;53.144;7.570;2023-05-07T10:19:34;18.80;;;13.27;;
14153;SDS011;7157;53.144;7.570;2023-05-07T10:29:42;15.27;;;12.23;;
14153;SDS011;7157;53.144;7.570;2023-05-07T10:39:51;16.63;;;9.70;;
14153;SDS011;7157;53.144;7.570;2023-05-07T11:00:41;14.98;;;11.52;;
14153;SDS011;7157;53.144;7.570;2023-05-07T11:10:50;16.63;;;13.25;;
14153;SDS011;7157;53.144;7.570;2023-05-07T11:20:55;12.32;;;9.90;;
14153;SDS011;7157;53.144;7.570;2023-05-07T11:31:01;13.20;;;11.00;;
14153;SDS011;7157;53.144;7.570;2023-05-07T11:41:05;15.88;;;11.48;;
14153;SDS011;7157;53.144;7.570;2023-05-07T11:51:10;12.70;;;10.70;;
14153;SDS011;7157;53.144;7.570;2023-05-07T12:01:15;10.73;;;9.63;;
14153;SDS011;7157;53.144;7.570;2023-05-07T12:11:23;11.18;;;9.52;;
14153;SDS011;7157;53.144;7.570;2023-05-07T12:21:26;9.55;;;8.55;;
14153;SDS011;7157;53.144;7.570;2023-05-07T12:31:31;8.90;;;7.82;;
14153;SDS011;7157;53.144;7.570;2023-05-07T12:41:36;10.55;;;6.50;;
14153;SDS011;7157;53.144;7.570;2023-05-07T12:51:55;7.85;;;5.63;;
14153;SDS011;7157;53.144;7.570;2023-05-07T13:01:58;11.10;;;8.27;;
14153;SDS011;7157;53.144;7.570;2023-05-07T13:12:02;8.63;;;6.75;;
14153;SDS011;7157;53.144;7.570;2023-05-07T13:22:05;8.50;;;6.50;;
14153;SDS011;7157;53.144;7.570;2023-05-07T13:32:09;7.97;;;6.18;;
14153;SDS011;7157;53.144;7.570;2023-05-07T13:42:12;8.50;;;6.20;;
14153;SDS011;7157;53.144;7.570;2023-05-07T13:52:17;9.32;;;6.32;;
14153;SDS011;7157;53.144;7.570;2023-05-07T14:02:19;7.45;;;5.80;;
14153;SDS011;7157;53.144;7.570;2023-05-07T14:12:24;6.47;;;5.25;;
14153;SDS011;7157;53.144;7.570;2023-05-07T14:22:27;8.90;;;5.75;;
14153;SDS011;7157;53.144;7.570;2023-05-07T14:32:31;9.57;;;6.28;;
14153;SDS011;7157;53.144;7.570;2023-05-07T14:42:34;10.07;;;6.03;;
14153;SDS011;7157;53.144;7.570;2023-05-07T14:52:38;7.30;;;6.03;;
14153;SDS011;7157;53.144;7.570;2023-05-07T15:02:41;7.90;;;5.35;;
14153;SDS011;7157;53.144;7.570;2023-05-07T15:12:45;7.18;;;5.30;;
14153;SDS011;7157;53.144;7.570;2023-05-07T15:22:48;6.97;;;4.75;;
14153;SDS011;7157;53.144;7.570;2023-05-07T15:32:52;8.88;;;4.97;;
14153;SDS011;7157;53.144;7.570;2023-05-07T15:42:55;10.38;;;5.85;;
14153;SDS011;7157;53.144;7.570;2023-05-07T15:52:59;7.68;;;5.32;;
14153;SDS011;7157;53.144;7.570;2023-05-07T16:03:02;11.27;;;5.72;;
14153;SDS011;7157;53.144;7.570;2023-05-07T16:13:06;7.30;;;5.88;;
14153;SDS011;7157;53.144;7.570;2023-05-07T16:23:09;8.25;;;5.43;;
14153;SDS011;7157;53.144;7.570;2023-05-07T16:33:14;8.43;;;5.53;;
14153;SDS011;7157;53.144;7.570;2023-05-07T16:43:17;8.30;;;5.50;;
14153;SDS011;7157;53.144;7.570;2023-05-07T16:53:21;8.85;;;5.68;;
14153;SDS011;7157;53.144;7.570;2023-05-07T17:03:24;8.02;;;5.97;;
14153;SDS011;7157;53.144;7.570;2023-05-07T17:13:28;8.60;;;5.68;;
14153;SDS011;7157;53.144;7.570;2023-05-07T17:23:31;8.00;;;5.72;;
14153;SDS011;7157;53.144;7.570;2023-05-07T17:33:35;7.15;;;5.68;;
14153;SDS011;7157;53.144;7.570;2023-05-07T17:43:38;9.02;;;5.35;;
14153;SDS011;7157;53.144;7.570;2023-05-07T17:53:42;8.82;;;5.10;;
14153;SDS011;7157;53.144;7.570;2023-05-07T18:03:44;5.68;;;4.10;;
14153;SDS011;7157;53.144;7.570;2023-05-07T18:13:49;6.55;;;4.70;;
14153;SDS011;7157;53.144;7.570;2023-05-07T18:23:51;6.75;;;4.57;;
14153;SDS011;7157;53.144;7.570;2023-05-07T18:33:55;7.25;;;4.63;;
14153;SDS011;7157;53.144;7.570;2023-05-07T18:43:58;7.53;;;5.00;;
14153;SDS011;7157;53.144;7.570;2023-05-07T18:54:02;7.90;;;5.20;;
14153;SDS011;7157;53.144;7.570;2023-05-07T19:04:05;7.47;;;5.15;;
14153;SDS011;7157;53.144;7.570;2023-05-07T19:14:09;7.57;;;4.88;;
14153;SDS011;7157;53.144;7.570;2023-05-07T19:24:12;9.13;;;5.25;;
14153;SDS011;7157;53.144;7.570;2023-05-07T19:34:16;8.75;;;5.80;;
14153;SDS011;7157;53.144;7.570;2023-05-07T19:44:19;11.25;;;5.50;;
14153;SDS011;7157;53.144;7.570;2023-05-07T19:54:23;7.88;;;4.85;;
14153;SDS011;7157;53.144;7.570;2023-05-07T20:04:26;8.65;;;4.97;;
14153;SDS011;7157;53.144;7.570;2023-05-07T20:14:34;12.07;;;4.63;;
14153;SDS011;7157;53.144;7.570;2023-05-07T20:24:37;8.07;;;4.50;;
14153;SDS011;7157;53.144;7.570;2023-05-07T20:34:43;6.97;;;4.47;;
14153;SDS011;7157;53.144;7.570;2023-05-07T20:44:46;8.63;;;4.80;;
14153;SDS011;7157;53.144;7.570;2023-05-07T20:54:51;8.60;;;4.53;;
14153;SDS011;7157;53.144;7.570;2023-05-07T21:04:54;7.60;;;4.28;;
14153;SDS011;7157;53.144;7.570;2023-05-07T21:14:59;7.07;;;4.93;;
14153;SDS011;7157;53.144;7.570;2023-05-07T21:25:02;8.15;;;5.05;;
14153;SDS011;7157;53.144;7.570;2023-05-07T21:35:08;8.00;;;4.70;;
14153;SDS011;7157;53.144;7.570;2023-05-07T21:45:11;9.38;;;5.43;;
14153;SDS011;7157;53.144;7.570;2023-05-07T21:55:15;11.80;;;5.35;;
14153;SDS011;7157;53.144;7.570;2023-05-07T22:05:18;10.65;;;5.32;;
14153;SDS011;7157;53.144;7.570;2023-05-07T22:15:23;11.77;;;5.65;;
14153;SDS011;7157;53.144;7.570;2023-05-07T22:25:26;8.40;;;5.40;;
14153;SDS011;7157;53.144;7.570;2023-05-07T22:35:34;7.88;;;5.38;;
14153;SDS011;7157;53.144;7.570;2023-05-07T22:45:36;7.82;;;5.32;;
14153;SDS011;7157;53.144;7.570;2023-05-07T22:55:41;9.52;;;5.93;;
14153;SDS011;7157;53.144;7.570;2023-05-07T23:05:43;12.00;;;5.68;;
14153;SDS011;7157;53.144;7.570;2023-05-07T23:15:47;9.18;;;5.95;;
14153;SDS011;7157;53.144;7.570;2023-05-07T23:25:50;10.90;;;5.80;;
14153;SDS011;7157;53.144;7.570;2023-05-07T23:36:01;9.05;;;5.40;;
14153;SDS011;7157;53.144;7.570;2023-05-07T23:46:04;8.27;;;5.60;;
14153;SDS011;7157;53.144;7.570;2023-05-07T23:56:09;13.13;;;5.50;;
